sensor_id;sensor_type;location;lat;lon;timestamp;temperature;humidity
29571;DHT22;16814;52.118;11.436;2022-07-11T00:00:12;13.20;99.90
29571;DHT22;16814;52.118;11.436;2022-07-11T00:02:46;13.20;99.90
29571;DHT22;16814;52.118;11.436;2022-07-11T00:05:23;13.20;99.90
29571;DHT22;16814;52.118;11.436;2022-07-11T00:07:50;13.20;99.90
29571;DHT22;16814;52.118;11.436;2022-07-11T00:10:18;13.20;99.90
29571;DHT22;16814;52.118;11.436;2022-07-11T00:12:46;13.20;99.90
29571;DHT22;16814;52.118;11.436;2022-07-11T00:15:12;13.20;99.90
29571;DHT22;16814;52.118;11.436;2022-07-11T00:17:40;13.20;99.90
29571;DHT22;16814;52.118;11.436;2022-07-11T00:20:09;13.20;99.90
29571;DHT22;16814;52.118;11.436;2022-07-11T00:22:35;13.20;99.90
29571;DHT22;16814;52.118;11.436;2022-07-11T00:25:05;13.20;99.90
29571;DHT22;16814;52.118;11.436;2022-07-11T00:27:33;13.20;99.90
29571;DHT22;16814;52.118;11.436;2022-07-11T00:30:00;13.10;99.90
29571;DHT22;16814;52.118;11.436;2022-07-11T00:32:27;13.10;99.90
29571;DHT22;16814;52.118;11.436;2022-07-11T00:34:55;13.00;99.90
29571;DHT22;16814;52.118;11.436;2022-07-11T00:37:21;13.00;99.90
29571;DHT22;16814;52.118;11.436;2022-07-11T00:39:49;12.90;99.90
29571;DHT22;16814;52.118;11.436;2022-07-11T00:42:20;12.90;99.90
29571;DHT22;16814;52.118;11.436;2022-07-11T00:44:51;12.90;99.90
29571;DHT22;16814;52.118;11.436;2022-07-11T00:47:18;12.90;99.90
29571;DHT22;16814;52.118;11.436;2022-07-11T00:49:45;12.80;99.90
29571;DHT22;16814;52.118;11.436;2022-07-11T00:52:13;12.80;99.90
29571;DHT22;16814;52.118;11.436;2022-07-11T00:54:43;12.70;99.90
29571;DHT22;16814;52.118;11.436;2022-07-11T00:57:10;12.70;99.90
29571;DHT22;16814;52.118;11.436;2022-07-11T00:59:38;12.70;99.90
29571;DHT22;16814;52.118;11.436;2022-07-11T01:02:05;12.70;99.90
29571;DHT22;16814;52.118;11.436;2022-07-11T01:04:31;12.70;99.90
29571;DHT22;16814;52.118;11.436;2022-07-11T01:06:56;12.70;99.90
29571;DHT22;16814;52.118;11.436;2022-07-11T01:09:23;12.70;99.90
29571;DHT22;16814;52.118;11.436;2022-07-11T01:11:51;12.70;99.90
29571;DHT22;16814;52.118;11.436;2022-07-11T01:14:18;12.70;99.90
29571;DHT22;16814;52.118;11.436;2022-07-11T01:16:45;12.70;99.90
29571;DHT22;16814;52.118;11.436;2022-07-11T01:19:14;12.70;99.90
29571;DHT22;16814;52.118;11.436;2022-07-11T01:21:50;12.70;99.90
29571;DHT22;16814;52.118;11.436;2022-07-11T01:24:18;12.70;99.90
29571;DHT22;16814;52.118;11.436;2022-07-11T01:26:44;12.70;99.90
29571;DHT22;16814;52.118;11.436;2022-07-11T01:29:14;12.70;99.90
29571;DHT22;16814;52.118;11.436;2022-07-11T01:31:43;12.70;99.90
29571;DHT22;16814;52.118;11.436;2022-07-11T01:34:11;12.70;99.90
29571;DHT22;16814;52.118;11.436;2022-07-11T01:36:40;12.70;99.90
29571;DHT22;16814;52.118;11.436;2022-07-11T01:39:19;12.70;99.90
29571;DHT22;16814;52.118;11.436;2022-07-11T01:41:46;12.70;99.90
29571;DHT22;16814;52.118;11.436;2022-07-11T01:44:12;12.70;99.90
29571;DHT22;16814;52.118;11.436;2022-07-11T01:46:38;12.70;99.90
29571;DHT22;16814;52.118;11.436;2022-07-11T01:49:06;12.60;99.90
29571;DHT22;16814;52.118;11.436;2022-07-11T01:51:34;12.60;99.90
29571;DHT22;16814;52.118;11.436;2022-07-11T01:54:01;12.70;99.90
29571;DHT22;16814;52.118;11.436;2022-07-11T01:56:29;12.70;99.90
29571;DHT22;16814;52.118;11.436;2022-07-11T01:59:01;12.70;99.90
29571;DHT22;16814;52.118;11.436;2022-07-11T02:01:28;12.70;99.90
29571;DHT22;16814;52.118;11.436;2022-07-11T02:03:57;12.70;99.90
29571;DHT22;16814;52.118;11.436;2022-07-11T02:06:25;12.70;99.90
29571;DHT22;16814;52.118;11.436;2022-07-11T02:08:58;12.70;99.90
29571;DHT22;16814;52.118;11.436;2022-07-11T02:11:25;12.70;99.90
29571;DHT22;16814;52.118;11.436;2022-07-11T02:13:53;12.70;99.90
29571;DHT22;16814;52.118;11.436;2022-07-11T02:16:21;12.60;99.90
29571;DHT22;16814;52.118;11.436;2022-07-11T02:18:49;12.60;99.90
29571;DHT22;16814;52.118;11.436;2022-07-11T02:21:16;12.60;99.90
29571;DHT22;16814;52.118;11.436;2022-07-11T02:23:43;12.60;99.90
29571;DHT22;16814;52.118;11.436;2022-07-11T02:26:10;12.60;99.90
29571;DHT22;16814;52.118;11.436;2022-07-11T02:28:37;12.60;99.90
29571;DHT22;16814;52.118;11.436;2022-07-11T02:31:06;12.60;99.90
29571;DHT22;16814;52.118;11.436;2022-07-11T02:33:33;12.70;99.90
29571;DHT22;16814;52.118;11.436;2022-07-11T02:36:01;12.60;99.90
29571;DHT22;16814;52.118;11.436;2022-07-11T02:38:28;12.60;99.90
29571;DHT22;16814;52.118;11.436;2022-07-11T02:40:55;12.70;99.90
29571;DHT22;16814;52.118;11.436;2022-07-11T02:43:22;12.60;99.90
29571;DHT22;16814;52.118;11.436;2022-07-11T02:45:49;12.60;99.90
29571;DHT22;16814;52.118;11.436;2022-07-11T02:48:15;12.50;99.90
29571;DHT22;16814;52.118;11.436;2022-07-11T02:50:46;12.40;99.90
29571;DHT22;16814;52.118;11.436;2022-07-11T02:53:14;12.30;99.90
29571;DHT22;16814;52.118;11.436;2022-07-11T02:55:41;12.30;99.90
29571;DHT22;16814;52.118;11.436;2022-07-11T02:58:08;12.20;99.90
29571;DHT22;16814;52.118;11.436;2022-07-11T03:00:36;12.20;99.90
29571;DHT22;16814;52.118;11.436;2022-07-11T03:03:02;12.20;99.90
29571;DHT22;16814;52.118;11.436;2022-07-11T03:05:28;12.30;99.90
29571;DHT22;16814;52.118;11.436;2022-07-11T03:07:55;12.20;99.90
29571;DHT22;16814;52.118;11.436;2022-07-11T03:10:22;12.20;99.90
29571;DHT22;16814;52.118;11.436;2022-07-11T03:12:53;12.10;99.90
29571;DHT22;16814;52.118;11.436;2022-07-11T03:15:22;12.00;99.90
29571;DHT22;16814;52.118;11.436;2022-07-11T03:17:49;11.80;99.90
29571;DHT22;16814;52.118;11.436;2022-07-11T03:20:18;11.80;99.90
29571;DHT22;16814;52.118;11.436;2022-07-11T03:22:45;11.90;99.90
29571;DHT22;16814;52.118;11.436;2022-07-11T03:25:14;11.90;99.90
29571;DHT22;16814;52.118;11.436;2022-07-11T03:27:41;12.00;99.90
29571;DHT22;16814;52.118;11.436;2022-07-11T03:30:11;11.90;99.90
29571;DHT22;16814;52.118;11.436;2022-07-11T03:32:38;11.90;99.90
29571;DHT22;16814;52.118;11.436;2022-07-11T03:35:04;12.00;99.90
29571;DHT22;16814;52.118;11.436;2022-07-11T03:37:50;12.10;99.90
29571;DHT22;16814;52.118;11.436;2022-07-11T03:40:17;12.30;99.90
29571;DHT22;16814;52.118;11.436;2022-07-11T03:42:44;12.40;99.90
29571;DHT22;16814;52.118;11.436;2022-07-11T03:45:10;12.40;99.90
29571;DHT22;16814;52.118;11.436;2022-07-11T03:47:40;12.30;99.90
29571;DHT22;16814;52.118;11.436;2022-07-11T03:50:07;12.30;99.90
29571;DHT22;16814;52.118;11.436;2022-07-11T03:52:35;12.20;99.90
29571;DHT22;16814;52.118;11.436;2022-07-11T03:55:04;12.30;99.90
29571;DHT22;16814;52.118;11.436;2022-07-11T03:57:30;12.20;99.90
29571;DHT22;16814;52.118;11.436;2022-07-11T03:59:56;12.40;99.90
29571;DHT22;16814;52.118;11.436;2022-07-11T04:02:25;12.40;99.90
29571;DHT22;16814;52.118;11.436;2022-07-11T04:04:54;12.40;99.90
29571;DHT22;16814;52.118;11.436;2022-07-11T04:07:20;12.50;99.90
29571;DHT22;16814;52.118;11.436;2022-07-11T04:09:47;12.80;99.90
29571;DHT22;16814;52.118;11.436;2022-07-11T04:12:13;12.80;99.90
29571;DHT22;16814;52.118;11.436;2022-07-11T04:14:41;12.80;99.90
29571;DHT22;16814;52.118;11.436;2022-07-11T04:17:07;13.00;99.90
29571;DHT22;16814;52.118;11.436;2022-07-11T04:19:32;13.00;99.90
29571;DHT22;16814;52.118;11.436;2022-07-11T04:21:59;13.10;99.90
29571;DHT22;16814;52.118;11.436;2022-07-11T04:24:27;13.20;99.90
29571;DHT22;16814;52.118;11.436;2022-07-11T04:26:54;13.20;99.90
29571;DHT22;16814;52.118;11.436;2022-07-11T04:29:21;13.20;99.90
29571;DHT22;16814;52.118;11.436;2022-07-11T04:31:50;13.20;99.90
29571;DHT22;16814;52.118;11.436;2022-07-11T04:34:17;13.30;99.90
29571;DHT22;16814;52.118;11.436;2022-07-11T04:36:45;13.40;99.90
29571;DHT22;16814;52.118;11.436;2022-07-11T04:39:12;13.40;99.90
29571;DHT22;16814;52.118;11.436;2022-07-11T04:41:39;13.40;99.90
29571;DHT22;16814;52.118;11.436;2022-07-11T04:44:06;13.40;99.90
29571;DHT22;16814;52.118;11.436;2022-07-11T04:46:34;13.30;99.90
29571;DHT22;16814;52.118;11.436;2022-07-11T04:49:02;13.30;99.90
29571;DHT22;16814;52.118;11.436;2022-07-11T04:51:28;13.30;99.90
29571;DHT22;16814;52.118;11.436;2022-07-11T04:53:57;13.30;99.90
29571;DHT22;16814;52.118;11.436;2022-07-11T04:56:24;13.40;99.90
29571;DHT22;16814;52.118;11.436;2022-07-11T04:58:51;13.40;99.90
29571;DHT22;16814;52.118;11.436;2022-07-11T05:01:20;13.50;99.90
29571;DHT22;16814;52.118;11.436;2022-07-11T05:03:47;13.60;99.90
29571;DHT22;16814;52.118;11.436;2022-07-11T05:06:16;13.60;99.90
29571;DHT22;16814;52.118;11.436;2022-07-11T05:08:43;13.80;99.90
29571;DHT22;16814;52.118;11.436;2022-07-11T05:11:11;13.90;99.90
29571;DHT22;16814;52.118;11.436;2022-07-11T05:13:38;14.00;99.90
29571;DHT22;16814;52.118;11.436;2022-07-11T05:16:05;14.20;99.90
29571;DHT22;16814;52.118;11.436;2022-07-11T05:18:33;14.30;99.90
29571;DHT22;16814;52.118;11.436;2022-07-11T05:21:00;14.50;99.90
29571;DHT22;16814;52.118;11.436;2022-07-11T05:23:27;14.50;99.90
29571;DHT22;16814;52.118;11.436;2022-07-11T05:25:52;14.70;99.90
29571;DHT22;16814;52.118;11.436;2022-07-11T05:28:20;14.80;99.90
29571;DHT22;16814;52.118;11.436;2022-07-11T05:30:48;15.00;99.90
29571;DHT22;16814;52.118;11.436;2022-07-11T05:33:15;15.40;99.90
29571;DHT22;16814;52.118;11.436;2022-07-11T05:35:44;15.80;99.90
29571;DHT22;16814;52.118;11.436;2022-07-11T05:38:10;16.50;99.90
29571;DHT22;16814;52.118;11.436;2022-07-11T05:40:37;17.40;99.90
29571;DHT22;16814;52.118;11.436;2022-07-11T05:43:06;18.50;99.90
29571;DHT22;16814;52.118;11.436;2022-07-11T05:45:33;19.70;99.90
29571;DHT22;16814;52.118;11.436;2022-07-11T05:48:00;20.60;99.90
29571;DHT22;16814;52.118;11.436;2022-07-11T05:50:29;20.80;99.90
29571;DHT22;16814;52.118;11.436;2022-07-11T05:52:56;20.50;99.90
29571;DHT22;16814;52.118;11.436;2022-07-11T05:55:25;19.90;99.90
29571;DHT22;16814;52.118;11.436;2022-07-11T05:57:50;19.00;99.90
29571;DHT22;16814;52.118;11.436;2022-07-11T06:00:19;18.20;99.90
29571;DHT22;16814;52.118;11.436;2022-07-11T06:02:47;18.00;99.90
29571;DHT22;16814;52.118;11.436;2022-07-11T06:05:13;17.80;99.90
29571;DHT22;16814;52.118;11.436;2022-07-11T06:07:41;17.90;99.90
29571;DHT22;16814;52.118;11.436;2022-07-11T06:10:35;17.90;99.90
29571;DHT22;16814;52.118;11.436;2022-07-11T06:13:02;17.60;99.90
29571;DHT22;16814;52.118;11.436;2022-07-11T06:15:29;17.50;99.90
29571;DHT22;16814;52.118;11.436;2022-07-11T06:18:08;17.40;99.90
29571;DHT22;16814;52.118;11.436;2022-07-11T06:20:35;17.80;99.90
29571;DHT22;16814;52.118;11.436;2022-07-11T06:23:01;18.70;99.90
29571;DHT22;16814;52.118;11.436;2022-07-11T06:25:28;19.50;99.90
29571;DHT22;16814;52.118;11.436;2022-07-11T06:27:55;20.20;99.90
29571;DHT22;16814;52.118;11.436;2022-07-11T06:30:22;20.60;99.90
29571;DHT22;16814;52.118;11.436;2022-07-11T06:32:49;20.90;99.90
29571;DHT22;16814;52.118;11.436;2022-07-11T06:35:15;20.80;99.90
29571;DHT22;16814;52.118;11.436;2022-07-11T06:37:42;20.40;99.90
29571;DHT22;16814;52.118;11.436;2022-07-11T06:40:08;20.20;99.90
29571;DHT22;16814;52.118;11.436;2022-07-11T06:42:37;19.80;99.90
29571;DHT22;16814;52.118;11.436;2022-07-11T06:45:05;19.30;99.90
29571;DHT22;16814;52.118;11.436;2022-07-11T06:47:33;19.00;99.90
29571;DHT22;16814;52.118;11.436;2022-07-11T06:49:58;18.60;99.90
29571;DHT22;16814;52.118;11.436;2022-07-11T06:52:26;18.50;99.90
29571;DHT22;16814;52.118;11.436;2022-07-11T06:54:53;18.20;99.90
29571;DHT22;16814;52.118;11.436;2022-07-11T06:57:20;18.20;99.90
29571;DHT22;16814;52.118;11.436;2022-07-11T06:59:49;18.00;99.90
29571;DHT22;16814;52.118;11.436;2022-07-11T07:02:14;18.00;99.90
29571;DHT22;16814;52.118;11.436;2022-07-11T07:04:43;17.90;99.90
29571;DHT22;16814;52.118;11.436;2022-07-11T07:07:14;17.40;99.90
29571;DHT22;16814;52.118;11.436;2022-07-11T07:09:41;17.00;99.90
29571;DHT22;16814;52.118;11.436;2022-07-11T07:12:08;17.00;99.90
29571;DHT22;16814;52.118;11.436;2022-07-11T07:14:36;17.40;99.90
29571;DHT22;16814;52.118;11.436;2022-07-11T07:17:03;17.80;99.90
29571;DHT22;16814;52.118;11.436;2022-07-11T07:19:30;18.20;99.90
29571;DHT22;16814;52.118;11.436;2022-07-11T07:21:58;18.60;99.90
29571;DHT22;16814;52.118;11.436;2022-07-11T07:24:25;18.70;99.90
29571;DHT22;16814;52.118;11.436;2022-07-11T07:26:53;19.30;99.90
29571;DHT22;16814;52.118;11.436;2022-07-11T07:29:21;19.70;99.90
29571;DHT22;16814;52.118;11.436;2022-07-11T07:31:49;19.90;99.90
29571;DHT22;16814;52.118;11.436;2022-07-11T07:34:16;19.90;99.90
29571;DHT22;16814;52.118;11.436;2022-07-11T07:36:46;19.90;99.90
29571;DHT22;16814;52.118;11.436;2022-07-11T07:39:14;20.00;99.90
29571;DHT22;16814;52.118;11.436;2022-07-11T07:41:43;19.80;99.90
29571;DHT22;16814;52.118;11.436;2022-07-11T07:44:10;19.90;99.90
29571;DHT22;16814;52.118;11.436;2022-07-11T07:46:37;20.00;99.90
29571;DHT22;16814;52.118;11.436;2022-07-11T07:49:07;19.60;99.90
29571;DHT22;16814;52.118;11.436;2022-07-11T07:51:34;19.50;99.90
29571;DHT22;16814;52.118;11.436;2022-07-11T07:54:02;19.40;99.90
29571;DHT22;16814;52.118;11.436;2022-07-11T07:56:33;19.60;99.90
29571;DHT22;16814;52.118;11.436;2022-07-11T07:59:02;19.70;99.90
29571;DHT22;16814;52.118;11.436;2022-07-11T08:01:29;19.80;99.90
29571;DHT22;16814;52.118;11.436;2022-07-11T08:04:03;19.90;99.90
29571;DHT22;16814;52.118;11.436;2022-07-11T08:06:36;20.20;99.90
29571;DHT22;16814;52.118;11.436;2022-07-11T08:09:03;20.50;99.90
29571;DHT22;16814;52.118;11.436;2022-07-11T08:11:30;20.60;99.90
29571;DHT22;16814;52.118;11.436;2022-07-11T08:13:59;20.40;99.90
29571;DHT22;16814;52.118;11.436;2022-07-11T08:16:27;19.90;99.90
29571;DHT22;16814;52.118;11.436;2022-07-11T08:19:03;20.40;99.90
29571;DHT22;16814;52.118;11.436;2022-07-11T08:21:32;20.40;99.90
29571;DHT22;16814;52.118;11.436;2022-07-11T08:24:01;20.60;99.90
29571;DHT22;16814;52.118;11.436;2022-07-11T08:26:28;21.20;99.90
29571;DHT22;16814;52.118;11.436;2022-07-11T08:28:57;21.40;98.40
29571;DHT22;16814;52.118;11.436;2022-07-11T08:31:26;21.20;98.10
29571;DHT22;16814;52.118;11.436;2022-07-11T08:33:53;20.90;99.50
29571;DHT22;16814;52.118;11.436;2022-07-11T08:36:20;21.40;99.90
29571;DHT22;16814;52.118;11.436;2022-07-11T08:38:48;21.80;98.80
29571;DHT22;16814;52.118;11.436;2022-07-11T08:41:16;21.80;97.90
29571;DHT22;16814;52.118;11.436;2022-07-11T08:43:46;21.80;97.50
29571;DHT22;16814;52.118;11.436;2022-07-11T08:46:14;21.50;96.60
29571;DHT22;16814;52.118;11.436;2022-07-11T08:48:42;21.20;96.50
29571;DHT22;16814;52.118;11.436;2022-07-11T08:51:09;20.80;96.60
29571;DHT22;16814;52.118;11.436;2022-07-11T08:53:41;20.80;97.60
29571;DHT22;16814;52.118;11.436;2022-07-11T08:56:16;20.60;97.70
29571;DHT22;16814;52.118;11.436;2022-07-11T08:58:50;20.60;97.20
29571;DHT22;16814;52.118;11.436;2022-07-11T09:01:34;20.50;98.10
29571;DHT22;16814;52.118;11.436;2022-07-11T09:04:01;21.00;97.00
29571;DHT22;16814;52.118;11.436;2022-07-11T09:06:28;21.40;97.40
29571;DHT22;16814;52.118;11.436;2022-07-11T09:09:01;21.60;97.40
29571;DHT22;16814;52.118;11.436;2022-07-11T09:11:28;22.00;97.00
29571;DHT22;16814;52.118;11.436;2022-07-11T09:14:30;22.20;95.30
29571;DHT22;16814;52.118;11.436;2022-07-11T09:17:06;22.30;95.30
29571;DHT22;16814;52.118;11.436;2022-07-11T09:19:35;22.10;95.20
29571;DHT22;16814;52.118;11.436;2022-07-11T09:22:10;21.80;95.30
29571;DHT22;16814;52.118;11.436;2022-07-11T09:25:05;22.10;95.20
29571;DHT22;16814;52.118;11.436;2022-07-11T09:28:01;22.40;94.80
29571;DHT22;16814;52.118;11.436;2022-07-11T09:30:39;22.80;93.40
29571;DHT22;16814;52.118;11.436;2022-07-11T09:33:11;22.90;93.40
29571;DHT22;16814;52.118;11.436;2022-07-11T09:35:42;22.70;94.00
29571;DHT22;16814;52.118;11.436;2022-07-11T09:38:14;22.50;94.00
29571;DHT22;16814;52.118;11.436;2022-07-11T09:40:46;22.50;93.50
29571;DHT22;16814;52.118;11.436;2022-07-11T09:43:24;22.40;93.70
29571;DHT22;16814;52.118;11.436;2022-07-11T09:45:52;22.40;93.80
29571;DHT22;16814;52.118;11.436;2022-07-11T09:48:20;22.50;92.30
29571;DHT22;16814;52.118;11.436;2022-07-11T09:51:00;21.80;92.60
29571;DHT22;16814;52.118;11.436;2022-07-11T09:53:32;21.60;94.30
29571;DHT22;16814;52.118;11.436;2022-07-11T09:55:58;22.40;94.70
29571;DHT22;16814;52.118;11.436;2022-07-11T09:58:28;23.10;92.20
29571;DHT22;16814;52.118;11.436;2022-07-11T10:00:57;23.00;90.20
29571;DHT22;16814;52.118;11.436;2022-07-11T10:03:25;22.80;90.70
29571;DHT22;16814;52.118;11.436;2022-07-11T10:05:54;23.10;92.00
29571;DHT22;16814;52.118;11.436;2022-07-11T10:08:20;23.30;91.30
29571;DHT22;16814;52.118;11.436;2022-07-11T10:10:48;23.40;91.00
29571;DHT22;16814;52.118;11.436;2022-07-11T10:13:15;23.40;90.50
29571;DHT22;16814;52.118;11.436;2022-07-11T10:15:43;23.30;89.10
29571;DHT22;16814;52.118;11.436;2022-07-11T10:18:35;23.50;87.50
29571;DHT22;16814;52.118;11.436;2022-07-11T10:21:37;23.50;84.60
29571;DHT22;16814;52.118;11.436;2022-07-11T10:27:25;23.10;88.80
29571;DHT22;16814;52.118;11.436;2022-07-11T10:29:56;23.20;90.20
29571;DHT22;16814;52.118;11.436;2022-07-11T10:32:23;22.60;89.00
29571;DHT22;16814;52.118;11.436;2022-07-11T10:35:15;22.10;89.40
29571;DHT22;16814;52.118;11.436;2022-07-11T10:37:45;22.80;91.30
29571;DHT22;16814;52.118;11.436;2022-07-11T10:40:17;23.50;90.40
29571;DHT22;16814;52.118;11.436;2022-07-11T10:43:06;24.10;86.90
29571;DHT22;16814;52.118;11.436;2022-07-11T10:48:31;24.40;85.00
29571;DHT22;16814;52.118;11.436;2022-07-11T10:51:03;24.30;82.80
29571;DHT22;16814;52.118;11.436;2022-07-11T10:53:36;24.10;83.00
29571;DHT22;16814;52.118;11.436;2022-07-11T10:59:16;24.20;85.80
29571;DHT22;16814;52.118;11.436;2022-07-11T11:02:12;23.90;79.30
29571;DHT22;16814;52.118;11.436;2022-07-11T11:05:00;23.90;83.90
29571;DHT22;16814;52.118;11.436;2022-07-11T11:07:43;24.10;81.80
29571;DHT22;16814;52.118;11.436;2022-07-11T11:18:31;24.70;77.70
29571;DHT22;16814;52.118;11.436;2022-07-11T11:21:13;24.80;80.90
29571;DHT22;16814;52.118;11.436;2022-07-11T11:23:42;25.10;79.60
29571;DHT22;16814;52.118;11.436;2022-07-11T11:26:11;25.20;75.80
29571;DHT22;16814;52.118;11.436;2022-07-11T11:28:38;24.70;74.90
29571;DHT22;16814;52.118;11.436;2022-07-11T11:31:09;24.90;74.50
29571;DHT22;16814;52.118;11.436;2022-07-11T11:33:36;24.90;75.20
29571;DHT22;16814;52.118;11.436;2022-07-11T11:36:16;25.20;71.90
29571;DHT22;16814;52.118;11.436;2022-07-11T11:38:45;25.00;71.30
29571;DHT22;16814;52.118;11.436;2022-07-11T11:41:25;25.20;71.90
29571;DHT22;16814;52.118;11.436;2022-07-11T11:43:54;25.20;73.50
29571;DHT22;16814;52.118;11.436;2022-07-11T11:46:30;24.90;75.60
29571;DHT22;16814;52.118;11.436;2022-07-11T11:49:01;25.00;76.30
29571;DHT22;16814;52.118;11.436;2022-07-11T11:51:31;24.30;75.60
29571;DHT22;16814;52.118;11.436;2022-07-11T11:54:02;24.60;77.20
29571;DHT22;16814;52.118;11.436;2022-07-11T11:56:35;24.70;74.30
29571;DHT22;16814;52.118;11.436;2022-07-11T11:59:07;24.60;74.50
29571;DHT22;16814;52.118;11.436;2022-07-11T12:01:37;24.60;73.60
29571;DHT22;16814;52.118;11.436;2022-07-11T12:04:13;24.40;74.20
29571;DHT22;16814;52.118;11.436;2022-07-11T12:06:46;24.30;70.50
29571;DHT22;16814;52.118;11.436;2022-07-11T12:09:18;24.40;71.90
29571;DHT22;16814;52.118;11.436;2022-07-11T12:12:19;24.30;74.20
29571;DHT22;16814;52.118;11.436;2022-07-11T12:15:21;24.40;74.40
29571;DHT22;16814;52.118;11.436;2022-07-11T12:17:51;23.60;74.90
29571;DHT22;16814;52.118;11.436;2022-07-11T12:20:38;23.60;76.30
29571;DHT22;16814;52.118;11.436;2022-07-11T12:23:10;23.50;75.00
29571;DHT22;16814;52.118;11.436;2022-07-11T12:25:38;23.50;79.40
29571;DHT22;16814;52.118;11.436;2022-07-11T12:28:05;23.70;77.10
29571;DHT22;16814;52.118;11.436;2022-07-11T12:30:36;23.90;75.30
29571;DHT22;16814;52.118;11.436;2022-07-11T12:33:09;23.90;74.20
29571;DHT22;16814;52.118;11.436;2022-07-11T12:35:51;23.90;74.10
29571;DHT22;16814;52.118;11.436;2022-07-11T12:38:19;23.90;71.40
29571;DHT22;16814;52.118;11.436;2022-07-11T12:41:03;23.90;74.40
29571;DHT22;16814;52.118;11.436;2022-07-11T12:43:49;23.30;75.90
29571;DHT22;16814;52.118;11.436;2022-07-11T12:46:39;23.40;78.30
29571;DHT22;16814;52.118;11.436;2022-07-11T12:49:07;23.40;77.30
29571;DHT22;16814;52.118;11.436;2022-07-11T12:51:41;23.50;77.20
29571;DHT22;16814;52.118;11.436;2022-07-11T12:54:14;23.60;77.00
29571;DHT22;16814;52.118;11.436;2022-07-11T12:57:02;23.40;75.70
29571;DHT22;16814;52.118;11.436;2022-07-11T12:59:30;23.70;77.80
29571;DHT22;16814;52.118;11.436;2022-07-11T13:02:09;23.70;74.30
29571;DHT22;16814;52.118;11.436;2022-07-11T13:04:50;23.70;74.50
29571;DHT22;16814;52.118;11.436;2022-07-11T13:07:34;23.70;68.80
29571;DHT22;16814;52.118;11.436;2022-07-11T13:10:24;23.70;72.50
29571;DHT22;16814;52.118;11.436;2022-07-11T13:12:52;23.70;70.60
29571;DHT22;16814;52.118;11.436;2022-07-11T13:15:18;23.70;68.60
29571;DHT22;16814;52.118;11.436;2022-07-11T13:17:50;23.40;69.50
29571;DHT22;16814;52.118;11.436;2022-07-11T13:20:21;23.30;72.00
29571;DHT22;16814;52.118;11.436;2022-07-11T13:22:48;23.10;73.50
29571;DHT22;16814;52.118;11.436;2022-07-11T13:25:16;22.90;76.30
29571;DHT22;16814;52.118;11.436;2022-07-11T13:27:43;23.10;74.90
29571;DHT22;16814;52.118;11.436;2022-07-11T13:30:11;23.30;75.90
29571;DHT22;16814;52.118;11.436;2022-07-11T13:32:40;23.30;73.50
29571;DHT22;16814;52.118;11.436;2022-07-11T13:35:08;23.10;70.40
29571;DHT22;16814;52.118;11.436;2022-07-11T13:37:34;22.70;71.40
29571;DHT22;16814;52.118;11.436;2022-07-11T13:40:15;22.50;73.20
29571;DHT22;16814;52.118;11.436;2022-07-11T13:42:42;22.50;76.80
29571;DHT22;16814;52.118;11.436;2022-07-11T13:45:21;22.50;75.80
29571;DHT22;16814;52.118;11.436;2022-07-11T13:47:51;22.80;77.60
29571;DHT22;16814;52.118;11.436;2022-07-11T13:50:19;22.90;75.30
29571;DHT22;16814;52.118;11.436;2022-07-11T13:52:54;22.70;75.20
29571;DHT22;16814;52.118;11.436;2022-07-11T13:55:21;23.00;77.20
29571;DHT22;16814;52.118;11.436;2022-07-11T13:57:53;22.80;72.00
29571;DHT22;16814;52.118;11.436;2022-07-11T14:00:20;22.70;75.80
29571;DHT22;16814;52.118;11.436;2022-07-11T14:02:47;22.60;77.70
29571;DHT22;16814;52.118;11.436;2022-07-11T14:05:15;22.70;78.00
29571;DHT22;16814;52.118;11.436;2022-07-11T14:07:41;22.80;77.60
29571;DHT22;16814;52.118;11.436;2022-07-11T14:10:12;22.60;76.60
29571;DHT22;16814;52.118;11.436;2022-07-11T14:12:40;22.70;75.80
29571;DHT22;16814;52.118;11.436;2022-07-11T14:15:06;22.90;76.40
29571;DHT22;16814;52.118;11.436;2022-07-11T14:17:37;23.00;71.70
29571;DHT22;16814;52.118;11.436;2022-07-11T14:20:06;23.10;74.30
29571;DHT22;16814;52.118;11.436;2022-07-11T14:22:32;23.10;75.50
29571;DHT22;16814;52.118;11.436;2022-07-11T14:24:59;23.40;73.70
29571;DHT22;16814;52.118;11.436;2022-07-11T14:27:25;23.30;73.60
29571;DHT22;16814;52.118;11.436;2022-07-11T14:29:52;23.40;74.90
29571;DHT22;16814;52.118;11.436;2022-07-11T14:32:18;23.20;69.60
29571;DHT22;16814;52.118;11.436;2022-07-11T14:34:50;22.80;75.10
29571;DHT22;16814;52.118;11.436;2022-07-11T14:37:18;23.00;72.20
29571;DHT22;16814;52.118;11.436;2022-07-11T14:39:46;22.80;71.80
29571;DHT22;16814;52.118;11.436;2022-07-11T14:42:11;22.90;75.10
29571;DHT22;16814;52.118;11.436;2022-07-11T14:44:37;23.00;75.40
29571;DHT22;16814;52.118;11.436;2022-07-11T14:47:04;23.20;76.30
29571;DHT22;16814;52.118;11.436;2022-07-11T14:49:30;23.10;74.20
29571;DHT22;16814;52.118;11.436;2022-07-11T14:51:56;23.00;74.80
29571;DHT22;16814;52.118;11.436;2022-07-11T14:54:21;22.90;76.10
29571;DHT22;16814;52.118;11.436;2022-07-11T14:56:47;23.00;76.00
29571;DHT22;16814;52.118;11.436;2022-07-11T14:59:13;23.10;76.00
29571;DHT22;16814;52.118;11.436;2022-07-11T15:01:41;23.20;76.00
29571;DHT22;16814;52.118;11.436;2022-07-11T15:04:06;23.20;74.70
29571;DHT22;16814;52.118;11.436;2022-07-11T15:06:32;23.20;75.90
29571;DHT22;16814;52.118;11.436;2022-07-11T15:09:16;23.00;76.90
29571;DHT22;16814;52.118;11.436;2022-07-11T15:12:03;23.30;74.90
29571;DHT22;16814;52.118;11.436;2022-07-11T15:14:48;22.90;76.30
29571;DHT22;16814;52.118;11.436;2022-07-11T15:17:16;23.10;77.30
29571;DHT22;16814;52.118;11.436;2022-07-11T15:19:44;23.30;77.60
29571;DHT22;16814;52.118;11.436;2022-07-11T15:22:11;23.20;79.50
29571;DHT22;16814;52.118;11.436;2022-07-11T15:24:43;23.40;77.40
29571;DHT22;16814;52.118;11.436;2022-07-11T15:27:10;23.30;76.00
29571;DHT22;16814;52.118;11.436;2022-07-11T15:29:37;23.30;78.50
29571;DHT22;16814;52.118;11.436;2022-07-11T15:32:04;23.30;78.90
29571;DHT22;16814;52.118;11.436;2022-07-11T15:34:33;23.20;80.00
29571;DHT22;16814;52.118;11.436;2022-07-11T15:37:01;23.30;78.40
29571;DHT22;16814;52.118;11.436;2022-07-11T15:39:30;23.00;78.40
29571;DHT22;16814;52.118;11.436;2022-07-11T15:41:59;22.80;80.90
29571;DHT22;16814;52.118;11.436;2022-07-11T15:44:27;22.60;80.40
29571;DHT22;16814;52.118;11.436;2022-07-11T15:46:53;22.40;82.30
29571;DHT22;16814;52.118;11.436;2022-07-11T15:49:20;22.20;83.10